createdAt,value
2022-09-27T00:00:07.713Z,94.32
2022-09-27T00:01:07.796Z,94.36
2022-09-27T00:02:07.896Z,94.46
2022-09-27T00:03:07.765Z,94.46
2022-09-27T00:04:07.682Z,94.56
2022-09-27T00:05:07.651Z,94.56
2022-09-27T00:06:07.651Z,94.77
2022-09-27T00:07:07.623Z,94.97
2022-09-27T00:08:07.625Z,95.07
2022-09-27T00:09:07.595Z,95.07
2022-09-27T00:10:07.583Z,95.32
2022-09-27T00:11:07.564Z,95.43
2022-09-27T00:12:07.544Z,95.53
2022-09-27T00:13:07.554Z,95.63
2022-09-27T00:14:07.564Z,95.73
2022-09-27T00:15:07.633Z,95.84
2022-09-27T00:16:07.704Z,95.84
2022-09-27T00:17:07.493Z,95.84
2022-09-27T00:18:07.484Z,95.94
2022-09-27T00:19:07.684Z,96.04
2022-09-27T00:20:07.442Z,96.14
2022-09-27T00:21:07.434Z,96.04
2022-09-27T00:22:07.433Z,95.73
2022-09-27T00:23:07.425Z,95.43
2022-09-27T00:24:07.434Z,95.32
2022-09-27T00:25:07.397Z,95.22
2022-09-27T00:26:07.394Z,95.32
2022-09-27T00:27:07.378Z,95.12
2022-09-27T00:28:07.337Z,95.12
2022-09-27T00:29:07.379Z,95.02
2022-09-27T00:30:07.313Z,94.81
2022-09-27T00:31:07.426Z,94.81
2022-09-27T00:32:08.025Z,94.92
2022-09-27T00:33:07.284Z,95.02
2022-09-27T00:34:07.285Z,95.12
2022-09-27T00:35:07.244Z,95.32
2022-09-27T00:36:07.275Z,95.32
2022-09-27T00:37:07.235Z,95.02
2022-09-27T00:38:07.224Z,94.40
2022-09-27T00:39:07.214Z,94.30
2022-09-27T00:40:07.207Z,94.20
2022-09-27T00:41:07.209Z,94.30
2022-09-27T00:42:07.153Z,94.30
2022-09-27T00:43:07.142Z,94.40
2022-09-27T00:44:07.135Z,94.46
2022-09-27T00:45:07.113Z,94.26
2022-09-27T00:46:07.169Z,94.06
2022-09-27T00:47:07.094Z,93.95
2022-09-27T00:48:07.065Z,93.95
2022-09-27T00:49:07.073Z,94.15
2022-09-27T00:50:07.035Z,94.40
2022-09-27T00:51:07.065Z,94.46
2022-09-27T00:52:07.005Z,94.51
2022-09-27T00:53:07.026Z,94.36
2022-09-27T00:54:07.005Z,94.36
2022-09-27T00:55:06.975Z,94.36
2022-09-27T00:56:06.965Z,94.26
2022-09-27T00:57:06.955Z,94.15
2022-09-27T00:58:06.935Z,94.15
2022-09-27T00:59:06.945Z,94.15
2022-09-27T01:00:06.905Z,94.26
2022-09-27T01:01:06.957Z,94.06
2022-09-27T01:02:06.924Z,93.95
2022-09-27T01:03:06.873Z,94.06
2022-09-27T01:04:06.863Z,93.74
2022-09-27T01:05:06.863Z,93.48
2022-09-27T01:06:06.836Z,93.44
2022-09-27T01:07:06.816Z,93.54
2022-09-27T01:08:06.798Z,93.44
2022-09-27T01:09:06.787Z,93.54
2022-09-27T01:10:06.786Z,93.79
2022-09-27T01:11:06.773Z,93.99
2022-09-27T01:12:06.744Z,94.51
2022-09-27T01:13:06.735Z,94.60
2022-09-27T01:14:06.736Z,94.51
2022-09-27T01:15:06.706Z,94.60
2022-09-27T01:16:06.720Z,94.30
2022-09-27T01:17:06.686Z,94.40
2022-09-27T01:18:06.668Z,94.81
2022-09-27T01:19:06.666Z,95.17
2022-09-27T01:20:06.646Z,95.26
2022-09-27T01:21:06.627Z,95.37
2022-09-27T01:22:06.616Z,95.37
2022-09-27T01:23:06.606Z,95.37
2022-09-27T01:24:06.606Z,95.47
2022-09-27T01:25:06.577Z,95.57
2022-09-27T01:26:06.566Z,95.57
2022-09-27T01:27:06.546Z,95.47
2022-09-27T01:28:06.529Z,95.57
2022-09-27T01:29:06.536Z,95.57
2022-09-27T01:30:06.505Z,95.47
2022-09-27T01:31:06.552Z,95.37
2022-09-27T01:32:06.487Z,95.12
2022-09-27T01:33:06.479Z,94.75
2022-09-27T01:34:06.468Z,94.75
2022-09-27T01:35:06.438Z,94.96
2022-09-27T01:36:06.429Z,94.96
2022-09-27T01:37:06.417Z,94.85
2022-09-27T01:38:06.407Z,94.24
2022-09-27T01:39:06.430Z,94.04
2022-09-27T01:40:06.438Z,94.04
2022-09-27T01:41:06.360Z,94.14
2022-09-27T01:42:07.673Z,94.24
2022-09-27T01:43:06.328Z,94.34
2022-09-27T01:44:06.338Z,94.45
2022-09-27T01:45:06.300Z,94.24
2022-09-27T01:46:06.382Z,94.34
2022-09-27T01:47:06.281Z,94.45
2022-09-27T01:48:06.277Z,94.34
2022-09-27T01:49:07.208Z,94.24
2022-09-27T01:50:06.245Z,94.24
2022-09-27T01:51:06.231Z,94.24
2022-09-27T01:52:06.219Z,94.24
2022-09-27T01:53:06.205Z,94.24
2022-09-27T01:54:06.202Z,94.34
2022-09-27T01:55:06.178Z,94.75
2022-09-27T01:56:06.169Z,95.06
2022-09-27T01:57:06.138Z,95.17
2022-09-27T01:58:06.148Z,94.65
2022-09-27T01:59:06.150Z,94.59
2022-09-27T02:00:06.146Z,94.18
2022-09-27T02:01:06.141Z,93.98
2022-09-27T02:02:06.081Z,94.18
2022-09-27T02:03:06.178Z,94.18
2022-09-27T02:04:06.069Z,94.59
2022-09-27T02:05:06.030Z,94.59
2022-09-27T02:06:06.029Z,94.39
2022-09-27T02:07:06.007Z,94.39
2022-09-27T02:08:05.999Z,94.39
2022-09-27T02:09:05.999Z,94.59
2022-09-27T02:10:05.971Z,94.80
2022-09-27T02:11:05.960Z,94.90
2022-09-27T02:12:05.939Z,95.21
2022-09-27T02:13:05.926Z,94.80
2022-09-27T02:14:05.929Z,94.29
2022-09-27T02:15:05.905Z,94.29
2022-09-27T02:16:05.969Z,94.29
2022-09-27T02:17:05.887Z,94.59
2022-09-27T02:18:05.879Z,94.59
2022-09-27T02:19:05.860Z,93.71
2022-09-27T02:20:05.871Z,93.41
2022-09-27T02:21:05.821Z,93.62
2022-09-27T02:22:05.818Z,93.71
2022-09-27T02:23:05.781Z,94.12
2022-09-27T02:24:05.843Z,93.82
2022-09-27T02:25:05.781Z,93.41
2022-09-27T02:26:05.752Z,93.10
2022-09-27T02:27:05.750Z,93.62
2022-09-27T02:28:05.740Z,93.82
2022-09-27T02:29:05.717Z,94.02
2022-09-27T02:30:05.720Z,94.23
2022-09-27T02:31:05.744Z,94.43
2022-09-27T02:32:05.672Z,94.64
2022-09-27T02:33:05.640Z,93.82
2022-09-27T02:34:05.639Z,92.69
2022-09-27T02:35:05.629Z,93.00
2022-09-27T02:36:05.840Z,93.30
2022-09-27T02:37:05.589Z,93.51
2022-09-27T02:38:05.836Z,93.92
2022-09-27T02:39:05.800Z,93.92
2022-09-27T02:40:05.590Z,93.62
2022-09-27T02:41:05.670Z,93.62
2022-09-27T02:42:05.560Z,94.12
2022-09-27T02:43:05.533Z,94.43
2022-09-27T02:44:05.621Z,94.43
2022-09-27T02:45:05.490Z,93.82
2022-09-27T02:46:05.507Z,93.82
2022-09-27T02:47:05.460Z,93.92
2022-09-27T02:48:05.439Z,93.66
2022-09-27T02:49:05.420Z,93.96
2022-09-27T02:50:05.430Z,94.37
2022-09-27T02:51:05.390Z,93.76
2022-09-27T02:52:05.390Z,93.96
2022-09-27T02:53:05.371Z,93.96
2022-09-27T02:54:05.360Z,94.07
2022-09-27T02:55:05.351Z,94.27
2022-09-27T02:56:05.339Z,94.58
2022-09-27T02:57:05.318Z,93.96
2022-09-27T02:58:05.311Z,93.86
2022-09-27T02:59:05.290Z,93.86
2022-09-27T03:00:05.290Z,94.27
2022-09-27T03:01:05.291Z,94.58
2022-09-27T03:02:08.599Z,94.89
2022-09-27T03:03:06.286Z,94.78
2022-09-27T03:04:05.228Z,94.68
2022-09-27T03:05:05.225Z,94.68
2022-09-27T03:06:05.202Z,94.58
2022-09-27T03:07:05.183Z,94.58
2022-09-27T03:08:05.176Z,94.68
2022-09-27T03:09:05.152Z,94.27
2022-09-27T03:10:05.159Z,94.12
2022-09-27T03:11:05.121Z,93.66
2022-09-27T03:12:05.113Z,93.66
2022-09-27T03:13:05.099Z,93.96
2022-09-27T03:14:09.290Z,94.37
2022-09-27T03:15:05.081Z,94.37
2022-09-27T03:16:05.061Z,94.37
2022-09-27T03:17:05.095Z,94.27
2022-09-27T03:18:05.042Z,94.37
2022-09-27T03:19:05.011Z,94.48
2022-09-27T03:20:05.021Z,94.58
2022-09-27T03:21:04.992Z,94.74
2022-09-27T03:22:04.980Z,94.43
2022-09-27T03:23:04.962Z,94.23
2022-09-27T03:24:04.951Z,94.02
2022-09-27T03:25:04.950Z,94.17
2022-09-27T03:26:04.922Z,94.27
2022-09-27T03:27:04.909Z,93.86
2022-09-27T03:28:04.889Z,94.07
2022-09-27T03:29:04.882Z,94.27
2022-09-27T03:30:04.891Z,94.48
2022-09-27T03:31:04.883Z,94.68
2022-09-27T03:32:04.869Z,94.58
2022-09-27T03:33:04.853Z,94.58
2022-09-27T03:34:04.801Z,94.48
2022-09-27T03:35:04.832Z,94.78
2022-09-27T03:36:04.808Z,94.78
2022-09-27T03:37:04.780Z,94.68
2022-09-27T03:38:04.752Z,94.48
2022-09-27T03:39:04.759Z,94.37
2022-09-27T03:40:04.752Z,94.17
2022-09-27T03:41:04.770Z,94.17
2022-09-27T03:42:04.713Z,94.37
2022-09-27T03:43:04.689Z,94.58
2022-09-27T03:44:04.673Z,94.17
2022-09-27T03:45:04.682Z,93.96
2022-09-27T03:46:04.717Z,94.17
2022-09-27T03:47:04.633Z,94.48
2022-09-27T03:48:04.614Z,94.48
2022-09-27T03:49:04.602Z,94.48
2022-09-27T03:50:04.613Z,94.48
2022-09-27T03:51:04.595Z,94.27
2022-09-27T03:52:04.563Z,94.37
2022-09-27T03:53:04.551Z,94.07
2022-09-27T03:54:04.533Z,94.07
2022-09-27T03:55:04.522Z,94.27
2022-09-27T03:56:04.524Z,94.17
2022-09-27T03:57:04.502Z,94.27
2022-09-27T03:58:04.473Z,93.66
2022-09-27T03:59:04.470Z,93.76
2022-09-27T04:00:04.452Z,93.96
2022-09-27T04:01:04.488Z,94.48
2022-09-27T04:02:04.458Z,94.78
2022-09-27T04:03:04.423Z,94.68
2022-09-27T04:04:08.810Z,94.27
2022-09-27T04:05:05.383Z,94.07
2022-09-27T04:06:04.384Z,93.96
2022-09-27T04:07:04.382Z,94.07
2022-09-27T04:08:04.341Z,94.27
2022-09-27T04:09:04.332Z,94.58
2022-09-27T04:10:04.326Z,94.99
2022-09-27T04:11:04.332Z,94.78
2022-09-27T04:12:04.283Z,94.37
2022-09-27T04:13:04.280Z,94.48
2022-09-27T04:14:04.264Z,94.68
2022-09-27T04:15:04.246Z,95.09
2022-09-27T04:16:04.244Z,95.20
2022-09-27T04:17:04.256Z,95.29
2022-09-27T04:18:04.241Z,95.50
2022-09-27T04:19:04.193Z,95.70
2022-09-27T04:20:04.229Z,95.70
2022-09-27T04:21:04.174Z,95.81
2022-09-27T04:22:04.144Z,95.40
2022-09-27T04:23:04.133Z,95.40
2022-09-27T04:24:04.123Z,95.29
2022-09-27T04:25:04.114Z,95.29
2022-09-27T04:26:04.103Z,95.29
2022-09-27T04:27:04.080Z,95.29
2022-09-27T04:28:04.074Z,94.89
2022-09-27T04:29:04.054Z,94.89
2022-09-27T04:30:04.076Z,94.58
2022-09-27T04:31:04.111Z,94.37
2022-09-27T04:32:04.003Z,94.37
2022-09-27T04:33:03.994Z,94.42
2022-09-27T04:34:03.982Z,94.11
2022-09-27T04:35:03.965Z,93.90
2022-09-27T04:36:03.975Z,94.52
2022-09-27T04:37:03.943Z,94.32
2022-09-27T04:38:03.926Z,94.52
2022-09-27T04:39:03.922Z,94.32
2022-09-27T04:40:03.906Z,94.11
2022-09-27T04:41:03.984Z,94.32
2022-09-27T04:42:03.867Z,94.68
2022-09-27T04:43:03.862Z,94.52
2022-09-27T04:44:03.855Z,94.42
2022-09-27T04:45:03.832Z,94.73
2022-09-27T04:46:03.899Z,94.93
2022-09-27T04:47:03.857Z,94.83
2022-09-27T04:48:03.834Z,94.62
2022-09-27T04:49:03.782Z,94.21
2022-09-27T04:50:03.764Z,94.11
2022-09-27T04:51:03.771Z,94.11
2022-09-27T04:52:03.724Z,94.11
2022-09-27T04:53:03.742Z,94.42
2022-09-27T04:54:03.704Z,94.93
2022-09-27T04:55:03.696Z,95.20
2022-09-27T04:56:03.733Z,95.40
2022-09-27T04:57:03.672Z,96.69
2022-09-27T04:58:03.653Z,96.28
2022-09-27T04:59:08.309Z,97.15
2022-09-27T05:00:04.615Z,96.95
2022-09-27T05:01:03.646Z,96.59
2022-09-27T05:02:03.678Z,94.34
2022-09-27T05:03:03.614Z,93.63
2022-09-27T05:04:03.564Z,93.38
2022-09-27T05:05:03.556Z,91.17
2022-09-27T05:06:03.539Z,90.66
2022-09-27T05:07:03.554Z,90.60
2022-09-27T05:08:03.505Z,90.81
2022-09-27T05:09:03.504Z,91.22
2022-09-27T05:10:03.485Z,91.52
2022-09-27T05:11:03.476Z,91.97
2022-09-27T05:12:03.497Z,92.18
2022-09-27T05:13:03.442Z,92.18
2022-09-27T05:14:03.452Z,92.08
2022-09-27T05:15:03.414Z,91.82
2022-09-27T05:16:03.425Z,92.22
2022-09-27T05:17:03.466Z,92.63
2022-09-27T05:18:03.416Z,92.74
2022-09-27T05:19:03.366Z,92.83
2022-09-27T05:20:03.364Z,92.74
2022-09-27T05:21:03.356Z,92.94
2022-09-27T05:22:03.335Z,92.94
2022-09-27T05:23:03.305Z,92.83
2022-09-27T05:24:03.309Z,92.68
2022-09-27T05:25:03.307Z,92.78
2022-09-27T05:26:03.266Z,93.39
2022-09-27T05:27:03.266Z,93.90
2022-09-27T05:28:03.239Z,94.21
2022-09-27T05:29:03.227Z,94.01
2022-09-27T05:30:03.222Z,94.01
2022-09-27T05:31:03.294Z,94.11
2022-09-27T05:32:03.193Z,94.21
2022-09-27T05:33:03.165Z,94.62
2022-09-27T05:34:03.154Z,94.83
2022-09-27T05:35:03.144Z,94.52
2022-09-27T05:36:03.114Z,93.80
2022-09-27T05:37:03.115Z,93.60
2022-09-27T05:38:03.085Z,94.01
2022-09-27T05:39:03.167Z,94.11
2022-09-27T05:40:16.926Z,94.21
2022-09-27T05:41:04.149Z,94.42
2022-09-27T05:42:03.056Z,94.62
2022-09-27T05:43:03.036Z,94.11
2022-09-27T05:44:03.045Z,93.60
2022-09-27T05:45:03.005Z,93.70
2022-09-27T05:46:03.056Z,93.39
2022-09-27T05:47:02.996Z,93.19
2022-09-27T05:48:02.985Z,93.13
2022-09-27T05:49:02.986Z,93.44
2022-09-27T05:50:02.955Z,93.64
2022-09-27T05:51:02.944Z,93.23
2022-09-27T05:52:02.951Z,93.44
2022-09-27T05:53:02.916Z,93.95
2022-09-27T05:54:02.877Z,94.15
2022-09-27T05:55:02.865Z,93.95
2022-09-27T05:56:02.848Z,94.26
2022-09-27T05:57:02.858Z,94.42
2022-09-27T05:58:02.843Z,93.90
2022-09-27T05:59:02.820Z,93.70
2022-09-27T06:00:02.798Z,93.49
2022-09-27T06:01:02.786Z,93.29
2022-09-27T06:02:02.914Z,92.88
2022-09-27T06:03:02.828Z,92.47
2022-09-27T06:04:02.750Z,92.27
2022-09-27T06:05:02.734Z,92.36
2022-09-27T06:06:02.707Z,92.98
2022-09-27T06:07:02.716Z,92.68
2022-09-27T06:08:02.926Z,92.68
2022-09-27T06:09:02.678Z,92.88
2022-09-27T06:10:02.663Z,92.47
2022-09-27T06:11:02.646Z,92.47
2022-09-27T06:12:02.646Z,92.47
2022-09-27T06:13:02.682Z,91.86
2022-09-27T06:14:02.606Z,91.96
2022-09-27T06:15:02.597Z,92.27
2022-09-27T06:16:02.575Z,92.10
2022-09-27T06:17:02.653Z,92.31
2022-09-27T06:18:02.567Z,92.61
2022-09-27T06:19:02.535Z,93.64
2022-09-27T06:20:02.516Z,93.80
2022-09-27T06:21:02.516Z,93.80
2022-09-27T06:22:02.496Z,93.49
2022-09-27T06:23:02.497Z,92.98
2022-09-27T06:24:02.466Z,93.08
2022-09-27T06:25:02.466Z,93.19
2022-09-27T06:26:02.447Z,92.68
2022-09-27T06:27:02.584Z,92.06
2022-09-27T06:28:02.426Z,91.96
2022-09-27T06:29:02.405Z,92.21
2022-09-27T06:30:02.378Z,92.21
2022-09-27T06:31:02.467Z,91.69
2022-09-27T06:32:02.357Z,91.28
2022-09-27T06:33:02.367Z,91.90
2022-09-27T06:34:02.326Z,92.10
2022-09-27T06:35:02.316Z,91.80
2022-09-27T06:36:02.424Z,92.21
2022-09-27T06:37:02.306Z,92.72
2022-09-27T06:38:02.285Z,93.23
2022-09-27T06:39:02.266Z,92.51
2022-09-27T06:40:02.246Z,92.31
2022-09-27T06:41:02.236Z,92.31
2022-09-27T06:42:02.217Z,91.18
2022-09-27T06:43:02.224Z,91.38
2022-09-27T06:44:02.193Z,92.10
2022-09-27T06:45:02.217Z,92.61
2022-09-27T06:46:02.243Z,92.00
2022-09-27T06:47:02.177Z,92.61
2022-09-27T06:48:02.178Z,93.23
2022-09-27T06:49:02.127Z,93.02
2022-09-27T06:50:02.115Z,92.61
2022-09-27T06:51:02.097Z,92.00
2022-09-27T06:52:02.077Z,92.51
2022-09-27T06:53:02.087Z,92.51
2022-09-27T06:54:02.055Z,92.21
2022-09-27T06:55:02.037Z,91.90
2022-09-27T06:56:02.026Z,91.80
2022-09-27T06:57:02.798Z,91.80
2022-09-27T06:58:01.993Z,91.75
2022-09-27T06:59:02.007Z,92.10
2022-09-27T07:00:01.969Z,91.80
2022-09-27T07:01:01.998Z,92.31
2022-09-27T07:02:02.011Z,92.88
2022-09-27T07:03:01.935Z,93.08
2022-09-27T07:04:01.937Z,93.08
2022-09-27T07:05:01.909Z,92.78
2022-09-27T07:06:01.885Z,92.57
2022-09-27T07:07:01.879Z,92.57
2022-09-27T07:08:01.859Z,92.47
2022-09-27T07:09:01.876Z,92.06
2022-09-27T07:10:04.160Z,91.24
2022-09-27T07:11:01.817Z,91.30
2022-09-27T07:12:01.803Z,91.30
2022-09-27T07:13:01.788Z,91.50
2022-09-27T07:14:01.787Z,91.91
2022-09-27T07:15:01.787Z,92.12
2022-09-27T07:16:01.748Z,91.71
2022-09-27T07:17:01.738Z,91.50
2022-09-27T07:18:01.727Z,91.82
2022-09-27T07:19:01.728Z,91.50
2022-09-27T07:20:02.221Z,90.79
2022-09-27T07:21:01.690Z,91.09
2022-09-27T07:22:01.687Z,91.91
2022-09-27T07:23:01.668Z,92.22
2022-09-27T07:24:01.676Z,91.50
2022-09-27T07:25:01.625Z,90.99
2022-09-27T07:26:01.601Z,90.99
2022-09-27T07:27:01.644Z,91.30
2022-09-27T07:28:02.613Z,91.30
2022-09-27T07:29:01.596Z,91.09
2022-09-27T07:30:01.558Z,90.89
2022-09-27T07:31:01.625Z,90.64
2022-09-27T07:32:01.554Z,90.54
2022-09-27T07:33:01.553Z,90.95
2022-09-27T07:34:01.547Z,91.16
2022-09-27T07:35:01.494Z,90.64
2022-09-27T07:36:01.503Z,90.44
2022-09-27T07:37:01.457Z,89.51
2022-09-27T07:38:01.439Z,89.83
2022-09-27T07:39:01.459Z,90.03
2022-09-27T07:40:01.412Z,89.98
2022-09-27T07:41:01.455Z,89.27
2022-09-27T07:42:01.393Z,88.76
2022-09-27T07:43:01.569Z,88.96
2022-09-27T07:44:01.377Z,90.30
2022-09-27T07:45:01.346Z,89.78
2022-09-27T07:46:01.749Z,89.27
2022-09-27T07:47:01.318Z,89.53
2022-09-27T07:48:01.323Z,89.84
2022-09-27T07:49:01.316Z,88.92
2022-09-27T07:50:01.298Z,88.62
2022-09-27T07:51:01.265Z,88.31
2022-09-27T07:52:01.349Z,88.35
2022-09-27T07:53:01.238Z,88.76
2022-09-27T07:54:05.263Z,87.84
2022-09-27T07:55:02.208Z,87.32
2022-09-27T07:56:01.219Z,87.32
2022-09-27T07:57:01.195Z,87.84
2022-09-27T07:58:01.201Z,88.62
2022-09-27T07:59:01.188Z,88.51
2022-09-27T08:00:01.157Z,88.82
2022-09-27T08:01:01.175Z,89.33
2022-09-27T08:02:01.183Z,89.12
2022-09-27T08:03:01.121Z,89.12
2022-09-27T08:04:01.118Z,89.03
2022-09-27T08:05:01.078Z,89.33
2022-09-27T08:06:01.080Z,89.33
2022-09-27T08:07:01.054Z,88.92
2022-09-27T08:08:01.058Z,87.70
2022-09-27T08:09:01.041Z,88.00
2022-09-27T08:10:01.009Z,88.62
2022-09-27T08:11:00.999Z,89.03
2022-09-27T08:12:00.988Z,88.88
2022-09-27T08:13:00.968Z,88.68
2022-09-27T08:14:00.979Z,87.35
2022-09-27T08:15:00.941Z,87.24
2022-09-27T08:16:00.936Z,86.90
2022-09-27T08:17:00.923Z,86.79
2022-09-27T08:18:00.928Z,86.90
2022-09-27T08:19:00.888Z,87.61
2022-09-27T08:20:00.878Z,87.37
2022-09-27T08:21:00.861Z,87.67
2022-09-27T08:22:00.850Z,88.18
2022-09-27T08:23:00.850Z,86.76
2022-09-27T08:24:00.829Z,85.73
2022-09-27T08:25:00.811Z,85.32
2022-09-27T08:26:00.800Z,84.14
2022-09-27T08:27:00.779Z,84.14
2022-09-27T08:28:00.790Z,84.75
2022-09-27T08:29:00.749Z,84.24
2022-09-27T08:30:00.743Z,82.70
2022-09-27T08:31:00.731Z,80.76
2022-09-27T08:32:00.755Z,82.40
2022-09-27T08:33:00.793Z,83.83
2022-09-27T08:34:00.702Z,83.46
2022-09-27T08:35:00.671Z,83.15
2022-09-27T08:36:00.669Z,81.51
2022-09-27T08:37:00.647Z,82.13
2022-09-27T08:38:00.665Z,82.64
2022-09-27T08:39:00.635Z,83.56
2022-09-27T08:40:00.681Z,83.62
2022-09-27T08:41:00.589Z,83.52
2022-09-27T08:42:00.581Z,84.65
2022-09-27T08:43:00.590Z,85.47
2022-09-27T08:44:00.573Z,85.47
2022-09-27T08:45:03.438Z,84.75
2022-09-27T08:46:00.634Z,85.06
2022-09-27T08:47:00.514Z,82.09
2022-09-27T08:48:00.530Z,82.70
2022-09-27T08:49:00.490Z,83.11
2022-09-27T08:50:00.477Z,82.91
2022-09-27T08:51:00.461Z,82.50
2022-09-27T08:52:00.441Z,82.70
2022-09-27T08:53:00.440Z,81.99
2022-09-27T08:54:00.426Z,82.09
2022-09-27T08:55:00.429Z,81.17
2022-09-27T08:56:00.391Z,81.27
2022-09-27T08:57:00.371Z,81.58
2022-09-27T08:58:00.382Z,83.22
2022-09-27T08:59:00.347Z,84.09
2022-09-27T09:00:00.331Z,84.71
2022-09-27T09:01:00.385Z,83.79
2022-09-27T09:02:00.345Z,82.56
2022-09-27T09:03:00.320Z,84.00
2022-09-27T09:04:00.290Z,84.61
2022-09-27T09:05:00.264Z,83.34
2022-09-27T09:06:00.319Z,83.65
2022-09-27T09:07:00.282Z,81.74
2022-09-27T09:08:00.281Z,82.36
2022-09-27T09:09:00.251Z,82.77
2022-09-27T09:10:00.202Z,83.44
2022-09-27T09:11:00.183Z,83.04
2022-09-27T09:12:00.179Z,82.53
2022-09-27T09:13:00.170Z,81.71
2022-09-27T09:14:00.148Z,82.63
2022-09-27T09:15:00.158Z,83.34
2022-09-27T09:16:00.183Z,81.51
2022-09-27T09:17:00.142Z,81.51
2022-09-27T09:18:00.141Z,81.30
2022-09-27T09:19:00.122Z,81.81
2022-09-27T09:20:00.076Z,81.95
2022-09-27T09:21:00.052Z,81.91
2022-09-27T09:22:00.043Z,82.73
2022-09-27T09:23:00.038Z,82.26
2022-09-27T09:24:00.052Z,82.05
2022-09-27T09:25:00.006Z,82.01
2022-09-27T09:25:59.989Z,81.91
2022-09-27T09:26:59.974Z,83.54
2022-09-27T09:28:02.451Z,82.42
2022-09-27T09:28:59.942Z,81.20
2022-09-27T09:29:59.932Z,82.93
2022-09-27T09:30:59.928Z,80.93
2022-09-27T09:31:59.959Z,80.73
2022-09-27T09:32:59.903Z,81.34
2022-09-27T09:33:59.892Z,80.93
2022-09-27T09:35:00.048Z,80.62
2022-09-27T09:35:59.930Z,81.44
2022-09-27T09:36:59.903Z,80.83
2022-09-27T09:37:59.849Z,81.65
2022-09-27T09:38:59.812Z,80.32
2022-09-27T09:39:59.802Z,81.44
2022-09-27T09:40:59.871Z,81.74
2022-09-27T09:41:59.782Z,82.05
2022-09-27T09:42:59.783Z,82.87
2022-09-27T09:43:59.742Z,82.46
2022-09-27T09:44:59.724Z,81.44
2022-09-27T09:45:59.793Z,81.13
2022-09-27T09:46:59.701Z,81.54
2022-09-27T09:47:59.712Z,81.65
2022-09-27T09:48:59.676Z,79.91
2022-09-27T09:49:59.664Z,79.80
2022-09-27T09:50:59.669Z,81.03
2022-09-27T09:51:59.672Z,81.34
2022-09-27T09:52:59.642Z,80.73
2022-09-27T09:53:59.618Z,79.50
2022-09-27T09:54:59.593Z,80.42
2022-09-27T09:55:59.590Z,81.40
2022-09-27T09:56:59.563Z,80.69
2022-09-27T09:57:59.582Z,81.81
2022-09-27T09:58:59.551Z,80.99
2022-09-27T09:59:59.533Z,81.60
2022-09-27T10:00:59.555Z,81.81
2022-09-27T10:01:59.520Z,81.91
2022-09-27T10:02:59.539Z,81.81
2022-09-27T10:03:59.481Z,82.22
2022-09-27T10:05:01.772Z,82.42
2022-09-27T10:06:00.465Z,81.91
2022-09-27T10:06:59.433Z,82.08
2022-09-27T10:07:59.444Z,81.67
2022-09-27T10:08:59.404Z,83.92
2022-09-27T10:09:59.404Z,85.14
2022-09-27T10:10:59.404Z,85.35
2022-09-27T10:11:59.401Z,85.35
2022-09-27T10:12:59.418Z,85.35
2022-09-27T10:13:59.352Z,83.81
2022-09-27T10:14:59.338Z,80.44
2022-09-27T10:15:59.394Z,77.48
2022-09-27T10:16:59.314Z,78.00
2022-09-27T10:17:59.293Z,79.83
2022-09-27T10:18:59.275Z,81.05
2022-09-27T10:19:59.262Z,82.18
2022-09-27T10:20:59.245Z,80.34
2022-09-27T10:21:59.572Z,79.43
2022-09-27T10:22:59.233Z,80.55
2022-09-27T10:23:59.214Z,79.73
2022-09-27T10:24:59.246Z,80.44
2022-09-27T10:25:59.188Z,80.96
2022-09-27T10:26:59.183Z,80.24
2022-09-27T10:27:59.162Z,78.88
2022-09-27T10:28:59.142Z,79.18
2022-09-27T10:29:59.132Z,79.08
2022-09-27T10:30:59.113Z,78.47
2022-09-27T10:31:59.154Z,79.49
2022-09-27T10:32:59.094Z,80.71
2022-09-27T10:33:59.102Z,79.18
2022-09-27T10:34:59.066Z,76.22
2022-09-27T10:35:59.085Z,76.93
2022-09-27T10:36:59.084Z,77.96
2022-09-27T10:37:59.043Z,75.71
2022-09-27T10:38:59.013Z,75.20
2022-09-27T10:39:58.995Z,75.00
2022-09-27T10:40:59.145Z,74.69
2022-09-27T10:41:58.997Z,73.77
2022-09-27T10:42:58.955Z,73.57
2022-09-27T10:43:58.954Z,74.55
2022-09-27T10:44:58.934Z,76.29
2022-09-27T10:45:58.990Z,77.00
2022-09-27T10:46:58.926Z,75.57
2022-09-27T10:47:58.896Z,73.54
2022-09-27T10:48:58.897Z,75.16
2022-09-27T10:49:58.863Z,75.98
2022-09-27T10:50:59.448Z,75.98
2022-09-27T10:51:58.857Z,74.86
2022-09-27T10:52:58.816Z,84.00
2022-09-27T10:53:58.806Z,83.86
2022-09-27T10:54:58.795Z,75.20
2022-09-27T10:55:58.785Z,75.78
2022-09-27T10:56:58.783Z,83.07
2022-09-27T10:57:58.765Z,80.63
2022-09-27T10:58:58.736Z,76.62
2022-09-27T10:59:58.735Z,74.79
2022-09-27T11:00:58.749Z,77.44
2022-09-27T11:01:58.729Z,77.23
2022-09-27T11:02:58.686Z,73.57
2022-09-27T11:03:58.676Z,78.66
2022-09-27T11:04:58.727Z,76.38
2022-09-27T11:05:58.657Z,71.94
2022-09-27T11:06:58.627Z,70.10
2022-09-27T11:07:58.639Z,70.65
2022-09-27T11:08:58.607Z,71.87
2022-09-27T11:09:58.605Z,72.78
2022-09-27T11:10:59.327Z,71.77
2022-09-27T11:11:58.588Z,72.55
2022-09-27T11:12:58.556Z,74.48
2022-09-27T11:13:58.580Z,76.15
2022-09-27T11:14:58.538Z,71.47
2022-09-27T11:15:58.590Z,70.89
2022-09-27T11:16:58.516Z,71.09
2022-09-27T11:17:58.487Z,71.73
2022-09-27T11:18:58.477Z,72.34
2022-09-27T11:19:58.655Z,72.34
2022-09-27T11:20:58.466Z,72.48
2022-09-27T11:21:58.465Z,73.50
2022-09-27T11:22:58.416Z,73.81
2022-09-27T11:23:58.405Z,72.99
2022-09-27T11:24:58.387Z,74.05
2022-09-27T11:25:58.397Z,73.64
2022-09-27T11:26:58.367Z,74.05
2022-09-27T11:27:58.378Z,73.23
2022-09-27T11:28:58.368Z,74.05
2022-09-27T11:29:58.346Z,74.35
2022-09-27T11:30:58.318Z,74.55
2022-09-27T11:31:58.333Z,72.72
2022-09-27T11:32:58.301Z,72.96
2022-09-27T11:33:58.277Z,74.25
2022-09-27T11:34:58.258Z,73.64
2022-09-27T11:35:58.267Z,73.74
2022-09-27T11:36:58.243Z,74.66
2022-09-27T11:37:58.238Z,74.45
2022-09-27T11:39:02.467Z,74.05
2022-09-27T11:39:58.218Z,74.05
2022-09-27T11:40:58.199Z,75.07
2022-09-27T11:41:58.167Z,73.43
2022-09-27T11:42:58.169Z,73.43
2022-09-27T11:43:58.166Z,72.92
2022-09-27T11:45:19.999Z,73.74
2022-09-27T11:46:19.220Z,73.60
2022-09-27T11:46:59.202Z,77.98
2022-09-27T11:47:58.205Z,75.95
2022-09-27T11:48:58.069Z,77.64
2022-09-27T11:49:58.058Z,78.02
2022-09-27T11:50:58.048Z,76.90
2022-09-27T11:51:58.037Z,80.83
2022-09-27T11:52:58.069Z,78.28
2022-09-27T11:53:58.017Z,76.01
2022-09-27T11:54:57.995Z,76.82
2022-09-27T11:55:58.016Z,76.31
2022-09-27T11:56:57.979Z,75.87
2022-09-27T11:57:57.979Z,75.16
2022-09-27T11:58:57.941Z,76.28
2022-09-27T11:59:57.929Z,76.28
2022-09-27T12:00:57.920Z,74.24
2022-09-27T12:01:57.926Z,73.19
2022-09-27T12:02:57.929Z,74.21
2022-09-27T12:03:57.890Z,71.47
2022-09-27T12:04:57.872Z,72.48
2022-09-27T12:05:59.874Z,69.46
2022-09-27T12:06:57.830Z,69.77
2022-09-27T12:07:57.871Z,70.01
2022-09-27T12:08:57.809Z,69.43
2022-09-27T12:09:57.969Z,70.89
2022-09-27T12:10:57.842Z,71.70
2022-09-27T12:11:57.759Z,71.84
2022-09-27T12:12:57.771Z,72.75
2022-09-27T12:13:57.730Z,72.38
2022-09-27T12:14:59.085Z,72.79
2022-09-27T12:15:57.754Z,73.60
2022-09-27T12:16:57.699Z,73.71
2022-09-27T12:17:57.811Z,74.83
2022-09-27T12:18:57.825Z,73.71
2022-09-27T12:19:57.726Z,73.91
2022-09-27T12:20:57.651Z,74.18
2022-09-27T12:21:57.642Z,73.77
2022-09-27T12:22:59.618Z,73.67
2022-09-27T12:23:57.621Z,73.57
2022-09-27T12:24:57.593Z,74.99
2022-09-27T12:25:57.637Z,74.58
2022-09-27T12:26:57.721Z,74.35
2022-09-27T12:27:58.841Z,72.11
2022-09-27T12:28:57.540Z,71.30
2022-09-27T12:29:57.544Z,72.11
2022-09-27T12:31:17.290Z,72.62
2022-09-27T12:31:58.536Z,72.31
2022-09-27T12:32:57.567Z,72.01
2022-09-27T12:33:57.481Z,72.01
2022-09-27T12:34:57.510Z,72.41
2022-09-27T12:35:57.471Z,72.41
2022-09-27T12:36:57.441Z,72.01
2022-09-27T12:37:57.434Z,70.78
2022-09-27T12:38:57.402Z,70.28
2022-09-27T12:39:57.410Z,70.89
2022-09-27T12:40:57.634Z,70.99
2022-09-27T12:41:57.362Z,71.39
2022-09-27T12:42:57.675Z,70.28
2022-09-27T12:43:57.338Z,69.36
2022-09-27T12:44:57.334Z,69.87
2022-09-27T12:45:57.325Z,69.97
2022-09-27T12:46:57.380Z,71.19
2022-09-27T12:47:57.311Z,71.80
2022-09-27T12:48:57.326Z,72.82
2022-09-27T12:50:01.164Z,73.02
2022-09-27T12:50:57.260Z,71.80
2022-09-27T12:51:57.274Z,70.89